Strona główna
METAR-TAF:

METAR-TAF

Lotnisko :

Port lotniczy Ndżamena

Ndżamena, Czad

Szerokość geograficzna: 12-08N, Długość geograficzna: 015-02E, wysokość: 295 m

Aktualna obserwacja pogody

Raport powstał 46 minut temu, godzina 11:00 UTC
Wiatr 5 kt od północ, zmienny między północ i wschód
Temperatura 33°C
Wilgotność 10%
Ciśnienie 1011 hPa
Widzialność 10 km lub więcej
Brak chmur poniżej 1500 m i brak chmur cumulonimbus

METAR: FTTJ 101100Z 01005KT 010V100 CAVOK 33/M02 Q1011 NOSIG

czas: 12:46 (11:46 UTC)

Prognoza

Raport powstał 46 minut temu, godzina 11:00 UTC
Prognoza ważna od 10 godzina 12 UTC do 11 godzina 18 UTC
Wiatr 10 kt od północno-północny wschód
Widzialność 10 km lub więcej
Brak chmur poniżej 1500 m i brak chmur cumulonimbus
Przejściowo
od 10 godzina 17 UTC do 10 godzina 20 UTC
Widzialność: 4000 m
zmętnienie
Przejściowo
od 11 godzina 16 UTC do 11 godzina 18 UTC
Widzialność: 4000 m
zmętnienie

TAF: FTTJ 101100Z 1012/1118 02010KT CAVOK TEMPO 1017/1020 4000 HZ TEMPO 1116/1118 4000 HZ

Obserwacja i prognoza pogody dla ponad 4000 lotnisk (raport METAR i TAF).

Dostępne stacje oznaczono żółtymi i czerwonymi punktami na mapie.

Najedź kursorem aby zobaczyć nazwę stacji.

Kliknij aby zobaczyć obserwacje i prognozy pogody.

Aby zmienić mapę: kliknij na zielony przycisk z czarnym krzyżykiem, aby powiększyć; na zielony przycisk z myślnikiem, aby pomniejszyć; na zielone strzałki, aby przejść do map sąsiednich.


METAR-TAF: